KDLS/DLS METAR and TAF weather

Enter ICAO airport designator
Station Type Date Time Source
KDLS METAR 2022/05/25 00:53 UTC NOAA

KDLS 250053Z AUTO 30014G20KT 10SM -RA FEW060 BKN075 OVC090 22/04 A2997 RMK AO2 RAB19E32B52 SLP148 P0000 T02170039


Station Type Date Time Source
KDLS Decoded METAR 2022/05/25 00:53 UTC NOAA

THE DALLES MUNICIPAL AIRPORT , OR, United States (KDLS) 45-37N 121-10W 71M
May 24, 2022 - 08:53 PM EDT / 2022.05.25 0053 UTC
Wind: from the WNW (300 degrees) at 16 MPH (14 KT) gusting to 23 MPH (20 KT):0
Visibility: 10 mile(s):0
Sky conditions: overcast
Weather: light rain
Precipitation last hour: A trace
Temperature: 71.1 F (21.7 C)
Dew Point: 39.0 F (3.9 C)
Relative Humidity: 31%
Pressure (altimeter): 29.97 in. Hg (1014 hPa)
ob: KDLS 250053Z AUTO 30014G20KT 10SM -RA FEW060 BKN075 OVC090 22/04 A2997 RMK AO2 RAB19E32B52 SLP148 P0000 T02170039
cycle: 1

Station Type Date Time Source
KDLS TAF 2022/05/24 21:16 UTC NOAA

TAF
AMD KDLS 242114Z 2421/2518 VRB05KT P6SM BKN150 OVC250
FM250200 30008G15KT P6SM SCT150 BKN250
FM251200 30004KT P6SM FEW250

Example: see airport list